Aviation Digital Data Service (ADDS)

Output produced by METARs form (1956 UTC 22 November 2017)
found at http://aviationweather.gov/adds/metars/
 
METAR text: KSPB 221953Z AUTO 17006KT 10SM OVC015 12/12 A3005 RMK AO2 RAB04E32 SLP175 P0000 T01220117 $
Conditions at: KSPB (SCAPPOOSE , OR, US) observed 1953 UTC 22 November 2017
Temperature: 12.2°C (54°F)
Dewpoint: 11.7°C (53°F) [RH = 97%]
Pressure (altimeter): 30.05 inches Hg (1017.7 mb)
[Sea-level pressure: 1017.5 mb]
Winds: from the S (170 degrees) at 7 MPH (6 knots; 3.1 m/s)
Visibility: 10 or more miles (16+ km)
Ceiling: 1500 feet AGL
Clouds: overcast cloud deck at 1500 feet AGL
Weather:
SOME DATA ABOVE MAY BE INACCURATE!!!
"$" is an indication the sensor requires maintenance

METAR text: KSPB 221946Z AUTO 15008KT 10SM OVC015 12/12 A3004 RMK AO2 RAB04E32 P0000 T01220117 $
Conditions at: KSPB (SCAPPOOSE , OR, US) observed 1946 UTC 22 November 2017
Temperature: 12.2°C (54°F)
Dewpoint: 11.7°C (53°F) [RH = 97%]
Pressure (altimeter): 30.04 inches Hg (1017.4 mb)
Winds: from the SSE (150 degrees) at 9 MPH (8 knots; 4.2 m/s)
Visibility: 10 or more miles (16+ km)
Ceiling: 1500 feet AGL
Clouds: overcast cloud deck at 1500 feet AGL
Weather:
SOME DATA ABOVE MAY BE INACCURATE!!!
"$" is an indication the sensor requires maintenance

METAR text: KSPB 221927Z AUTO 17005KT 6SM -RA BR OVC013 12/12 A3005 RMK AO2 RAB04 P0000 T01220117 $
Conditions at: KSPB (SCAPPOOSE , OR, US) observed 1927 UTC 22 November 2017
Temperature: 12.2°C (54°F)
Dewpoint: 11.7°C (53°F) [RH = 97%]
Pressure (altimeter): 30.05 inches Hg (1017.7 mb)
Winds: from the S (170 degrees) at 6 MPH (5 knots; 2.6 m/s)
Visibility: 6 miles (10 km)
Ceiling: 1300 feet AGL
Clouds: overcast cloud deck at 1300 feet AGL
Weather: -RA BR  (light rain, mist)
SOME DATA ABOVE MAY BE INACCURATE!!!
"$" is an indication the sensor requires maintenance

METAR text: KSPB 221853Z AUTO 16004KT 7SM OVC015 12/12 A3006 RMK AO2 RAB01E51 SLP179 P0001 T01220122 $
Conditions at: KSPB (SCAPPOOSE , OR, US) observed 1853 UTC 22 November 2017
Temperature: 12.2°C (54°F)
Dewpoint: 12.2°C (54°F) [RH = 100%]
Pressure (altimeter): 30.06 inches Hg (1018.0 mb)
[Sea-level pressure: 1017.9 mb]
Winds: from the SSE (160 degrees) at 5 MPH (4 knots; 2.1 m/s)
Visibility: 7 miles (11 km)
Ceiling: 1500 feet AGL
Clouds: overcast cloud deck at 1500 feet AGL
Weather:
SOME DATA ABOVE MAY BE INACCURATE!!!
"$" is an indication the sensor requires maintenance

METAR text: KSPB 221843Z AUTO 15003KT 5SM -RA BR OVC015 12/12 A3006 RMK AO2 RAB01 P0001 T01220117 $
Conditions at: KSPB (SCAPPOOSE , OR, US) observed 1843 UTC 22 November 2017
Temperature: 12.2°C (54°F)
Dewpoint: 11.7°C (53°F) [RH = 97%]
Pressure (altimeter): 30.06 inches Hg (1018.0 mb)
Winds: from the SSE (150 degrees) at 3 MPH (3 knots; 1.6 m/s)
Visibility: 5 miles (8 km)
Ceiling: 1500 feet AGL
Clouds: overcast cloud deck at 1500 feet AGL
Weather: -RA BR  (light rain, mist)
SOME DATA ABOVE MAY BE INACCURATE!!!
"$" is an indication the sensor requires maintenance

METAR text: KSPB 221821Z AUTO 18003KT 7SM -RA SCT006 OVC014 12/12 A3006 RMK AO2 RAB01 P0001 T01170117 $
Conditions at: KSPB (SCAPPOOSE , OR, US) observed 1821 UTC 22 November 2017
Temperature: 11.7°C (53°F)
Dewpoint: 11.7°C (53°F) [RH = 100%]
Pressure (altimeter): 30.06 inches Hg (1018.0 mb)
Winds: from the S (180 degrees) at 3 MPH (3 knots; 1.6 m/s)
Visibility: 7 miles (11 km)
Ceiling: 1400 feet AGL
Clouds: scattered clouds at 600 feet AGL
overcast cloud deck at 1400 feet AGL
Weather: -RA  (light rain)
SOME DATA ABOVE MAY BE INACCURATE!!!
"$" is an indication the sensor requires maintenance